Rutersville, Texas
Current Conditions -  °F | °C
As of 7:15 PM on Friday 28 Nov 2014 (Local Time) from K3T5 Reporting Station
Clear Clear  
Wind Chill: 61°   Ceiling: Unl
Heat Index: 61°   Visibility: 10mi
Dew Point: 53°   Wind: 6mph
Humidity: 74%   Direction: 170°S
Pressure: 30.12"   Gusts: NA
Location:  29.8569°N, 96.9311°W
Report Text: K3T5 290115Z AUTO 17005KT 10SM CLR 16/12 A3012 RMK AO2 T01620115
Loading
Personal Weather Stations






























Interactive Weather Map New forecast layout! Learn more

10-Day Weather Forecast

Advertisements
Track Severe Weather on mobile